createdAt,value
2019-05-25T00:01:47.784Z,100201.93
2019-05-25T00:04:16.883Z,100208.75
2019-05-25T00:06:46.020Z,100211.98
2019-05-25T00:09:15.182Z,100211.16
2019-05-25T00:11:44.457Z,100211.16
2019-05-25T00:14:13.582Z,100214.34
2019-05-25T00:16:42.772Z,100210.85
2019-05-25T00:19:11.923Z,100208.27
2019-05-25T00:21:41.066Z,100205.69
2019-05-25T00:24:12.571Z,100201.36
2019-05-25T00:26:41.126Z,100203.26
2019-05-25T00:29:10.276Z,100198.96
2019-05-25T00:31:39.425Z,100204.36
2019-05-25T00:34:08.571Z,100125.92
2019-05-25T00:36:37.720Z,100208.55
2019-05-25T00:39:08.023Z,100209.08
2019-05-25T00:41:37.231Z,100204.70
2019-05-25T00:44:06.355Z,100202.61
2019-05-25T00:46:35.478Z,100210.17
2019-05-25T00:49:04.757Z,100215.98
2019-05-25T00:51:33.964Z,100213.86
2019-05-25T00:54:03.155Z,100209.98
2019-05-25T00:56:32.276Z,100211.41
2019-05-25T00:59:01.415Z,100210.13
2019-05-25T01:01:30.563Z,100213.30
2019-05-25T01:03:59.707Z,100212.89
2019-05-25T01:06:28.849Z,100216.53
2019-05-25T01:08:57.994Z,100221.92
2019-05-25T01:11:27.137Z,100223.32
2019-05-25T01:13:56.312Z,100223.81
2019-05-25T01:16:25.459Z,100227.45
2019-05-25T01:18:54.591Z,100224.44
2019-05-25T01:21:23.747Z,100229.78
2019-05-25T01:23:52.885Z,100226.28
2019-05-25T01:26:22.032Z,100230.37
2019-05-25T01:28:51.190Z,100232.23
2019-05-25T01:31:20.364Z,100228.27
2019-05-25T01:33:49.481Z,100230.55
2019-05-25T01:36:18.631Z,100229.73
2019-05-25T01:38:47.772Z,100231.59
2019-05-25T01:41:16.907Z,100229.48
2019-05-25T01:43:46.067Z,100236.64
2019-05-25T01:46:15.184Z,100235.90
2019-05-25T01:48:44.337Z,100233.89
2019-05-25T01:51:13.501Z,100234.02
2019-05-25T01:53:42.628Z,100236.80
2019-05-25T01:56:11.770Z,100241.30
2019-05-25T01:58:40.934Z,100239.60
2019-05-25T02:01:10.069Z,100243.25
2019-05-25T02:03:39.212Z,100250.04
2019-05-25T02:06:08.379Z,100246.69
2019-05-25T02:08:37.559Z,100247.67
2019-05-25T02:11:06.703Z,100246.01
2019-05-25T02:13:35.861Z,100243.47
2019-05-25T02:16:05.210Z,100251.57
2019-05-25T02:18:34.351Z,100254.78
2019-05-25T02:21:03.484Z,100250.52
2019-05-25T02:23:32.594Z,100240.44
2019-05-25T02:26:01.803Z,100246.24
2019-05-25T02:28:30.984Z,100242.31
2019-05-25T02:31:00.177Z,100251.15
2019-05-25T02:33:29.293Z,100249.45
2019-05-25T02:35:58.440Z,100253.08
2019-05-25T02:38:27.557Z,100254.53
2019-05-25T02:40:57.272Z,100249.72
2019-05-25T02:43:26.401Z,100260.83
2019-05-25T02:45:55.582Z,100260.94
2019-05-25T02:48:24.729Z,100263.20
2019-05-25T02:50:53.887Z,100262.39
2019-05-25T02:53:23.040Z,100264.22
2019-05-25T02:55:52.184Z,100276.19
2019-05-25T02:58:21.335Z,100271.42
2019-05-25T03:00:50.470Z,100270.61
2019-05-25T03:03:19.640Z,100273.30
2019-05-25T03:05:50.486Z,100274.63
2019-05-25T03:08:19.667Z,100268.88
2019-05-25T03:10:50.055Z,100272.38
2019-05-25T03:13:19.842Z,100276.80
2019-05-25T03:15:49.112Z,100284.33
2019-05-25T03:18:18.284Z,100282.58
2019-05-25T03:20:47.422Z,100285.70
2019-05-25T03:23:16.576Z,100286.59
2019-05-25T03:25:49.654Z,100287.05
2019-05-25T03:28:16.618Z,100290.14
2019-05-25T03:30:45.763Z,100289.31
2019-05-25T03:33:14.914Z,100292.89
2019-05-25T03:35:44.134Z,100294.69
2019-05-25T03:38:13.303Z,100295.13
2019-05-25T03:40:42.456Z,100302.20
2019-05-25T03:43:11.580Z,100300.45
2019-05-25T03:45:40.723Z,100303.98
2019-05-25T03:48:09.841Z,100310.17
2019-05-25T03:50:38.959Z,100308.38
2019-05-25T03:53:08.090Z,100310.14
2019-05-25T03:55:37.217Z,100310.56
2019-05-25T03:58:06.355Z,100309.61
2019-05-25T04:00:36.908Z,100038.73
2019-05-25T04:03:26.743Z,100314.54
2019-05-25T04:05:55.905Z,100309.27
2019-05-25T04:08:25.035Z,100311.07
2019-05-25T04:10:54.208Z,100312.36
2019-05-25T04:13:23.374Z,100315.42
2019-05-25T04:15:52.563Z,100315.75
2019-05-25T04:18:21.721Z,100314.81
2019-05-25T04:20:50.803Z,100312.10
2019-05-25T04:23:19.983Z,100317.34
2019-05-25T04:25:49.131Z,100319.45
2019-05-25T04:28:18.352Z,100321.16
2019-05-25T04:30:47.557Z,100323.34
2019-05-25T04:33:16.700Z,100325.95
2019-05-25T04:35:45.839Z,100329.00
2019-05-25T04:38:14.997Z,100333.37
2019-05-25T04:40:44.125Z,100334.64
2019-05-25T04:43:13.279Z,100336.77
2019-05-25T04:45:42.409Z,100336.73
2019-05-25T04:48:11.539Z,100337.16
2019-05-25T04:50:40.658Z,100342.84
2019-05-25T04:53:09.802Z,100341.93
2019-05-25T04:55:38.918Z,100344.44
2019-05-25T04:58:08.113Z,100344.44
2019-05-25T05:00:37.269Z,100339.53
2019-05-25T05:03:06.402Z,100345.69
2019-05-25T05:05:35.613Z,100343.84
2019-05-25T05:08:04.789Z,100342.52
2019-05-25T05:10:33.968Z,100340.29
2019-05-25T05:13:03.115Z,100342.05
2019-05-25T05:15:32.277Z,100344.70
2019-05-25T05:18:01.419Z,100339.30
2019-05-25T05:20:30.555Z,100349.89
2019-05-25T05:22:59.737Z,100270.17
2019-05-25T05:25:28.975Z,100348.06
2019-05-25T05:27:58.101Z,100193.95
2019-05-25T05:30:34.064Z,100355.89
2019-05-25T05:33:03.543Z,100355.41
2019-05-25T05:35:38.590Z,100355.36
2019-05-25T05:38:09.082Z,100351.77
2019-05-25T05:40:38.683Z,100354.03
2019-05-25T05:43:12.149Z,100350.95
2019-05-25T05:45:43.341Z,100350.08
2019-05-25T05:48:13.750Z,100355.72
2019-05-25T05:50:43.881Z,100356.16
2019-05-25T05:53:13.156Z,100366.34
2019-05-25T05:55:42.538Z,100359.23
2019-05-25T05:58:11.930Z,100355.65
2019-05-25T06:00:41.189Z,100362.19
2019-05-25T06:03:10.450Z,100359.00
2019-05-25T06:05:39.591Z,100361.52
2019-05-25T06:08:08.724Z,100356.13
2019-05-25T06:10:37.847Z,100358.27
2019-05-25T06:13:07.060Z,100356.05
2019-05-25T06:15:36.179Z,100355.14
2019-05-25T06:18:05.507Z,100362.63
2019-05-25T06:20:34.634Z,100357.73
2019-05-25T06:23:07.662Z,100359.55
2019-05-25T06:25:34.615Z,100361.72
2019-05-25T06:28:03.750Z,100367.01
2019-05-25T06:30:32.866Z,100370.55
2019-05-25T06:33:01.961Z,100369.22
2019-05-25T06:35:31.108Z,100371.88
2019-05-25T06:38:00.229Z,100375.43
2019-05-25T06:40:29.375Z,100375.43
2019-05-25T06:42:58.506Z,100371.88
2019-05-25T06:45:27.844Z,100380.69
2019-05-25T06:47:56.952Z,100374.53
2019-05-25T06:50:26.090Z,100371.36
2019-05-25T06:52:57.863Z,100389.47
2019-05-25T06:55:26.113Z,100390.91
2019-05-25T06:57:55.195Z,100388.71
2019-05-25T07:00:24.329Z,100397.55
2019-05-25T07:02:53.453Z,100393.48
2019-05-25T07:05:22.568Z,100397.92
2019-05-25T07:07:54.482Z,100402.36
2019-05-25T07:10:25.550Z,100400.66
2019-05-25T07:12:55.178Z,100404.67
2019-05-25T07:15:24.336Z,100400.30
2019-05-25T07:17:53.452Z,100407.78
2019-05-25T07:20:22.586Z,100405.55
2019-05-25T07:22:51.737Z,100409.11
2019-05-25T07:25:24.482Z,100417.08
2019-05-25T07:27:59.527Z,100413.52
2019-05-25T07:30:24.592Z,100418.36
2019-05-25T07:32:53.703Z,100416.52
2019-05-25T07:35:22.849Z,100417.80
2019-05-25T07:37:51.990Z,100420.82
2019-05-25T07:40:21.176Z,100418.64
2019-05-25T07:42:50.305Z,100418.56
2019-05-25T07:45:19.457Z,100150.38
2019-05-25T07:47:48.631Z,100419.09
2019-05-25T07:50:19.084Z,100416.89
2019-05-25T07:52:48.212Z,100418.22
2019-05-25T07:55:17.362Z,100420.88
2019-05-25T07:57:46.501Z,100419.09
2019-05-25T08:00:15.728Z,100422.09
2019-05-25T08:02:44.858Z,100417.16
2019-05-25T08:05:14.286Z,100425.49
2019-05-25T08:07:43.394Z,100415.31
2019-05-25T08:10:12.735Z,100420.66
2019-05-25T08:12:41.857Z,100423.80
2019-05-25T08:15:12.839Z,100429.14
2019-05-25T08:17:41.956Z,100426.03
2019-05-25T08:20:11.121Z,100428.15
2019-05-25T08:22:40.340Z,100429.42
2019-05-25T08:25:09.707Z,100429.39
2019-05-25T08:27:38.861Z,100431.14
2019-05-25T08:30:08.887Z,100428.43
2019-05-25T08:32:38.110Z,100435.08
2019-05-25T08:35:07.333Z,100426.63
2019-05-25T08:37:36.666Z,100438.58
2019-05-25T08:40:06.891Z,100423.54
2019-05-25T08:42:36.061Z,100140.12
2019-05-25T08:45:05.547Z,100433.72
2019-05-25T08:47:34.807Z,100431.43
2019-05-25T08:50:04.297Z,100435.78
2019-05-25T08:52:33.438Z,100430.36
2019-05-25T08:55:02.687Z,100434.31
2019-05-25T08:57:31.891Z,100439.12
2019-05-25T09:00:01.085Z,100440.80
2019-05-25T09:02:30.177Z,100443.33
2019-05-25T09:04:59.280Z,100438.77
2019-05-25T09:07:28.435Z,100436.95
2019-05-25T09:09:57.587Z,100447.53
2019-05-25T09:12:26.709Z,100442.58
2019-05-25T09:14:55.970Z,100441.67
2019-05-25T09:17:25.225Z,100442.97
2019-05-25T09:19:54.500Z,100445.57
2019-05-25T09:22:23.655Z,100452.94
2019-05-25T09:24:52.797Z,100452.88
2019-05-25T09:27:21.935Z,100452.81
2019-05-25T09:29:51.061Z,100456.27
2019-05-25T09:32:20.259Z,100457.44
2019-05-25T09:34:49.438Z,100457.23
2019-05-25T09:37:18.556Z,100454.31
2019-05-25T09:39:47.684Z,100453.56
2019-05-25T09:42:16.900Z,100454.72
2019-05-25T09:44:46.045Z,100456.86
2019-05-25T09:47:15.192Z,100461.17
2019-05-25T09:49:44.336Z,100460.30
2019-05-25T09:52:13.473Z,100453.51
2019-05-25T09:54:42.604Z,100458.80
2019-05-25T09:57:11.756Z,100456.06
2019-05-25T09:59:40.899Z,100455.19
2019-05-25T10:02:10.057Z,100453.44
2019-05-25T10:04:39.191Z,100456.82
2019-05-25T10:07:08.322Z,100453.17
2019-05-25T10:09:40.024Z,100455.03
2019-05-25T10:12:08.351Z,100454.54
2019-05-25T10:14:37.462Z,100452.67
2019-05-25T10:17:06.622Z,100459.64
2019-05-25T10:19:35.754Z,100467.55
2019-05-25T10:22:05.188Z,100462.19
2019-05-25T10:24:34.320Z,100466.60
2019-05-25T10:27:03.623Z,100466.19
2019-05-25T10:29:37.253Z,100466.11
2019-05-25T10:32:03.624Z,100465.91
2019-05-25T10:34:32.746Z,100465.25
2019-05-25T10:37:01.880Z,100457.08
2019-05-25T10:39:31.170Z,100459.09
2019-05-25T10:42:00.306Z,100243.78
2019-05-25T10:44:29.574Z,100456.12
2019-05-25T10:47:01.131Z,100452.03
2019-05-25T10:49:30.243Z,100446.12
2019-05-25T10:51:59.410Z,100441.06
2019-05-25T10:54:28.516Z,100445.35
2019-05-25T10:56:57.634Z,100452.86
2019-05-25T10:59:26.757Z,100453.27
2019-05-25T11:01:55.891Z,100452.94
2019-05-25T11:04:25.071Z,100452.20
2019-05-25T11:06:54.267Z,100453.53
2019-05-25T11:09:23.417Z,100445.95
2019-05-25T11:11:52.567Z,100447.28
2019-05-25T11:14:21.670Z,100447.73
2019-05-25T11:16:50.810Z,100447.37
2019-05-25T11:19:19.938Z,100447.28
2019-05-25T11:21:49.062Z,100448.06
2019-05-25T11:24:18.238Z,100444.52
2019-05-25T11:26:47.343Z,100438.35
2019-05-25T11:29:16.681Z,100438.44
2019-05-25T11:31:54.403Z,100436.93
2019-05-25T11:34:16.635Z,100438.42
2019-05-25T11:36:45.766Z,100432.86
2019-05-25T11:39:14.914Z,100436.47
2019-05-25T11:41:44.072Z,100438.81
2019-05-25T11:44:13.196Z,100438.96
2019-05-25T11:46:42.326Z,100433.23
2019-05-25T11:49:22.127Z,100433.48
2019-05-25T11:51:42.295Z,100424.27
2019-05-25T11:54:11.450Z,100420.84
2019-05-25T11:56:40.594Z,100420.58
2019-05-25T11:59:09.731Z,100413.48
2019-05-25T12:01:38.870Z,100417.88
2019-05-25T12:04:07.991Z,100424.47
2019-05-25T12:06:37.096Z,100417.41
2019-05-25T12:09:07.866Z,100407.46
2019-05-25T12:11:37.010Z,100407.46
2019-05-25T12:14:06.154Z,100406.17
2019-05-25T12:16:35.329Z,100402.73
2019-05-25T12:19:04.465Z,100405.71
2019-05-25T12:21:33.723Z,100405.59
2019-05-25T12:24:02.883Z,100410.43
2019-05-25T12:26:32.035Z,100406.00
2019-05-25T12:29:01.149Z,100405.89
2019-05-25T12:31:30.338Z,100405.89
2019-05-25T12:33:59.487Z,100394.37
2019-05-25T12:36:28.607Z,100400.59
2019-05-25T12:38:57.802Z,100402.22
2019-05-25T12:41:26.942Z,100393.58
2019-05-25T12:43:56.108Z,100399.63
2019-05-25T12:46:25.293Z,100401.23
2019-05-25T12:48:54.460Z,100398.09
2019-05-25T12:51:23.599Z,100399.48
2019-05-25T12:53:52.831Z,100397.45
2019-05-25T12:56:21.989Z,100394.83
2019-05-25T12:58:51.134Z,100398.79
2019-05-25T13:01:20.297Z,100394.08
2019-05-25T13:03:49.474Z,100404.98
2019-05-25T13:06:18.668Z,100399.39
2019-05-25T13:08:47.832Z,100396.59
2019-05-25T13:11:17.019Z,100398.75
2019-05-25T13:13:46.252Z,100389.26
2019-05-25T13:16:15.457Z,100388.29
2019-05-25T13:18:44.645Z,100391.24
2019-05-25T13:21:13.784Z,100387.69
2019-05-25T13:23:42.933Z,100387.62
2019-05-25T13:26:12.052Z,100388.68
2019-05-25T13:28:41.212Z,100384.14
2019-05-25T13:31:12.036Z,100382.05
2019-05-25T13:33:41.290Z,100381.75
2019-05-25T13:36:10.531Z,100380.77
2019-05-25T13:38:39.752Z,100381.12
2019-05-25T13:41:08.903Z,100379.53
2019-05-25T13:43:38.085Z,100382.94
2019-05-25T13:46:07.244Z,100377.98
2019-05-25T13:48:36.449Z,100381.59
2019-05-25T13:51:05.663Z,100372.89
2019-05-25T13:53:34.867Z,100373.89
2019-05-25T13:56:03.998Z,100380.47
2019-05-25T13:58:33.136Z,100377.98
2019-05-25T14:01:02.269Z,100377.17
2019-05-25T14:03:31.521Z,100378.79
2019-05-25T14:06:00.705Z,100370.22
2019-05-25T14:08:29.889Z,100379.44
2019-05-25T14:10:59.071Z,100378.79
2019-05-25T14:13:28.228Z,100382.94
2019-05-25T14:16:06.562Z,100382.13
2019-05-25T14:18:28.232Z,100384.62
2019-05-25T14:20:57.512Z,100382.53
2019-05-25T14:23:26.651Z,100377.92
2019-05-25T14:25:55.818Z,100377.63
2019-05-25T14:28:25.034Z,100374.11
2019-05-25T14:30:54.260Z,100375.50
2019-05-25T14:33:23.418Z,100378.67
2019-05-25T14:35:52.547Z,100367.41
2019-05-25T14:38:21.676Z,100369.22
2019-05-25T14:40:50.808Z,100371.83
2019-05-25T14:43:19.982Z,100379.48
2019-05-25T14:45:53.233Z,100378.60
2019-05-25T14:48:20.088Z,100369.27
2019-05-25T14:50:49.285Z,100376.98
2019-05-25T14:53:18.452Z,100365.45
2019-05-25T14:55:47.619Z,100368.14
2019-05-25T14:58:16.742Z,100366.52
2019-05-25T15:00:46.006Z,100371.89
2019-05-25T15:03:15.134Z,100369.55
2019-05-25T15:05:44.284Z,100368.94
2019-05-25T15:08:13.449Z,100368.00
2019-05-25T15:10:42.617Z,100361.77
2019-05-25T15:13:11.822Z,100366.49
2019-05-25T15:15:40.964Z,100356.00
2019-05-25T15:18:10.128Z,100353.89
2019-05-25T15:20:39.340Z,100360.92
2019-05-25T15:23:08.533Z,100355.30
2019-05-25T15:25:37.736Z,100358.05
2019-05-25T15:28:06.928Z,100360.48
2019-05-25T15:30:36.226Z,100362.97
2019-05-25T15:33:06.262Z,100354.05
2019-05-25T15:35:35.363Z,100354.66
2019-05-25T15:38:04.509Z,100360.55
2019-05-25T15:40:33.690Z,100352.64
2019-05-25T15:43:02.907Z,100356.59
2019-05-25T15:45:32.127Z,100352.64
2019-05-25T15:48:01.263Z,100351.05
2019-05-25T15:50:30.453Z,100349.84
2019-05-25T15:52:59.631Z,100348.23
2019-05-25T15:55:28.819Z,100348.42
2019-05-25T15:57:57.960Z,100348.09
2019-05-25T16:00:46.939Z,100354.15
2019-05-25T16:03:18.262Z,100357.62
2019-05-25T16:05:47.841Z,100352.85
2019-05-25T16:08:18.237Z,100351.05
2019-05-25T16:10:47.676Z,100349.59
2019-05-25T16:13:16.903Z,100358.63
2019-05-25T16:15:46.042Z,100357.53
2019-05-25T16:18:15.263Z,100358.63
2019-05-25T16:20:44.377Z,100353.11
2019-05-25T16:23:13.567Z,100353.56
2019-05-25T16:25:42.785Z,100348.91
2019-05-25T16:28:11.959Z,100350.38
2019-05-25T16:30:41.116Z,100351.30
2019-05-25T16:33:12.811Z,100353.76
2019-05-25T16:35:41.123Z,100356.65
2019-05-25T16:38:10.460Z,100354.38
2019-05-25T16:40:39.557Z,100353.68
2019-05-25T16:43:08.720Z,100353.09
2019-05-25T16:45:40.022Z,100350.54
2019-05-25T16:48:09.153Z,100352.03
2019-05-25T16:50:38.296Z,100350.75
2019-05-25T16:53:07.431Z,100349.06
2019-05-25T16:55:36.571Z,100118.77
2019-05-25T16:58:05.792Z,100351.03
2019-05-25T17:00:34.944Z,100355.11
2019-05-25T17:03:04.133Z,100349.34
2019-05-25T17:05:33.299Z,100353.89
2019-05-25T17:08:02.429Z,100349.88
2019-05-25T17:10:31.629Z,100350.86
2019-05-25T17:13:00.871Z,100347.66
2019-05-25T17:15:29.987Z,100346.38
2019-05-25T17:17:59.219Z,100349.88
2019-05-25T17:20:28.384Z,100344.58
2019-05-25T17:22:57.671Z,100343.23
2019-05-25T17:25:28.385Z,100336.25
2019-05-25T17:27:57.569Z,100340.27
2019-05-25T17:30:58.223Z,100334.63
2019-05-25T17:33:44.216Z,100333.34
2019-05-25T17:35:58.253Z,100331.66
2019-05-25T17:38:27.402Z,100338.28
2019-05-25T17:40:56.526Z,100340.96
2019-05-25T17:43:25.793Z,100342.36
2019-05-25T17:45:54.973Z,100334.84
2019-05-25T17:48:24.084Z,100339.49
2019-05-25T17:50:53.268Z,100337.23
2019-05-25T17:53:22.408Z,100338.16
2019-05-25T17:55:51.579Z,100331.99
2019-05-25T17:58:20.780Z,100337.08
2019-05-25T18:00:50.852Z,100341.83
2019-05-25T18:03:20.369Z,100339.38
2019-05-25T18:05:49.632Z,100339.95
2019-05-25T18:08:18.758Z,100347.66
2019-05-25T18:10:55.127Z,100339.33
2019-05-25T18:13:18.847Z,100347.05
2019-05-25T18:15:48.121Z,100350.81
2019-05-25T18:18:17.200Z,100350.19
2019-05-25T18:20:46.429Z,100349.05
2019-05-25T18:23:15.688Z,100345.72
2019-05-25T18:25:44.856Z,100347.67
2019-05-25T18:28:14.016Z,100359.43
2019-05-25T18:30:43.152Z,100358.66
2019-05-25T18:33:12.399Z,100353.92
2019-05-25T18:35:41.558Z,100353.17
2019-05-25T18:38:10.730Z,100356.48
2019-05-25T18:40:39.864Z,100357.20
2019-05-25T18:43:09.120Z,100367.21
2019-05-25T18:45:38.280Z,100358.60
2019-05-25T18:48:07.483Z,100361.56
2019-05-25T18:50:36.647Z,100361.88
2019-05-25T18:53:05.865Z,100365.71
2019-05-25T18:55:35.000Z,100365.28
2019-05-25T18:58:04.245Z,100373.70
2019-05-25T19:00:33.439Z,100376.63
2019-05-25T19:03:02.604Z,100376.86
2019-05-25T19:05:31.803Z,100381.98
2019-05-25T19:08:00.950Z,100380.91
2019-05-25T19:10:30.332Z,100382.11
2019-05-25T19:12:59.598Z,100379.78
2019-05-25T19:15:28.733Z,100380.05
2019-05-25T19:17:58.082Z,100378.92
2019-05-25T19:20:27.239Z,100385.33
2019-05-25T19:22:56.433Z,100382.40
2019-05-25T19:25:25.558Z,100382.97
2019-05-25T19:27:54.718Z,100384.88
2019-05-25T19:30:23.859Z,100387.31
2019-05-25T19:32:53.052Z,100387.50
2019-05-25T19:35:22.308Z,100389.02
2019-05-25T19:37:51.526Z,100383.91
2019-05-25T19:40:20.685Z,100392.58
2019-05-25T19:42:50.335Z,100393.24
2019-05-25T19:45:22.010Z,100396.11
2019-05-25T19:47:51.190Z,100396.81
2019-05-25T19:50:20.546Z,100394.31
2019-05-25T19:52:49.699Z,100398.16
2019-05-25T19:55:18.867Z,100402.30
2019-05-25T19:57:48.014Z,100403.37
2019-05-25T20:00:17.462Z,100407.58
2019-05-25T20:02:46.671Z,100415.66
2019-05-25T20:05:17.634Z,100414.87
2019-05-25T20:07:46.938Z,100409.58
2019-05-25T20:10:16.536Z,100413.23
2019-05-25T20:12:45.714Z,100419.97
2019-05-25T20:15:15.569Z,100420.06
2019-05-25T20:17:44.710Z,100422.36
2019-05-25T20:20:14.736Z,100418.39
2019-05-25T20:22:43.936Z,100414.95
2019-05-25T20:25:13.396Z,100411.95
2019-05-25T20:27:42.567Z,100411.69
2019-05-25T20:30:11.845Z,100419.52
2019-05-25T20:32:41.022Z,100415.72
2019-05-25T20:35:10.189Z,100419.34
2019-05-25T20:37:39.365Z,100424.25
2019-05-25T20:40:09.520Z,100420.31
2019-05-25T20:42:39.665Z,100423.89
2019-05-25T20:45:09.432Z,100424.34
2019-05-25T20:47:38.627Z,100422.64
2019-05-25T20:50:08.451Z,100422.70
2019-05-25T20:52:37.655Z,100419.22
2019-05-25T20:55:07.663Z,100418.82
2019-05-25T20:57:36.791Z,100419.31
2019-05-25T21:00:06.705Z,100417.16
2019-05-25T21:02:35.861Z,100421.72
2019-05-25T21:05:05.177Z,100414.33
2019-05-25T21:07:34.361Z,100421.08
2019-05-25T21:10:03.531Z,100419.47
2019-05-25T21:12:32.669Z,100422.20
2019-05-25T21:15:01.870Z,100428.45
2019-05-25T21:17:30.987Z,100420.61
2019-05-25T21:20:00.266Z,100422.40
2019-05-25T21:22:29.371Z,100428.22
2019-05-25T21:25:05.146Z,100424.30
2019-05-25T21:27:29.409Z,100421.76
2019-05-25T21:29:58.589Z,100419.19
2019-05-25T21:32:27.753Z,100421.89
2019-05-25T21:34:56.886Z,100421.08
2019-05-25T21:37:26.126Z,100421.56
2019-05-25T21:39:55.298Z,100414.57
2019-05-25T21:42:24.515Z,100415.51
2019-05-25T21:44:53.678Z,100419.09
2019-05-25T21:47:22.852Z,100420.89
2019-05-25T21:49:52.009Z,100415.65
2019-05-25T21:52:21.200Z,100419.26
2019-05-25T21:54:50.350Z,100419.76
2019-05-25T21:57:19.499Z,100416.30
2019-05-25T21:59:48.662Z,100411.55
2019-05-25T22:02:17.795Z,100415.14
2019-05-25T22:04:46.929Z,100416.48
2019-05-25T22:07:16.054Z,100413.41
2019-05-25T22:09:45.206Z,100409.91
2019-05-25T22:12:14.363Z,100413.48
2019-05-25T22:14:43.526Z,100412.66
2019-05-25T22:17:12.664Z,100407.84
2019-05-25T22:19:41.847Z,100409.19
2019-05-25T22:22:10.985Z,100403.92
2019-05-25T22:24:40.138Z,100400.43
2019-05-25T22:27:09.264Z,100397.34
2019-05-25T22:29:38.432Z,100392.97
2019-05-25T22:32:07.612Z,100390.39
2019-05-25T22:34:36.804Z,100390.84
2019-05-25T22:37:05.943Z,100385.59
2019-05-25T22:39:35.100Z,100300.98
2019-05-25T22:42:04.402Z,100381.23
2019-05-25T22:44:33.550Z,100381.72
2019-05-25T22:47:02.727Z,100383.08
2019-05-25T22:49:31.889Z,100378.69
2019-05-25T22:52:01.040Z,100379.62
2019-05-25T22:54:30.179Z,100379.21
2019-05-25T22:56:59.340Z,100383.20
2019-05-25T22:59:28.425Z,100382.36
2019-05-25T23:01:57.566Z,100377.54
2019-05-25T23:04:26.709Z,100379.34
2019-05-25T23:06:58.195Z,100384.21
2019-05-25T23:09:26.802Z,100382.02
2019-05-25T23:11:55.955Z,100380.72
2019-05-25T23:14:25.102Z,100376.37
2019-05-25T23:16:54.280Z,100375.06
2019-05-25T23:19:23.547Z,100370.24
2019-05-25T23:21:52.680Z,100365.84
2019-05-25T23:24:21.808Z,100365.42
2019-05-25T23:26:50.916Z,100361.48
2019-05-25T23:29:20.135Z,100357.97
2019-05-25T23:31:49.306Z,100351.81
2019-05-25T23:34:18.485Z,100352.31
2019-05-25T23:36:47.670Z,100349.27
2019-05-25T23:39:16.817Z,100343.56
2019-05-25T23:41:45.984Z,100351.53
2019-05-25T23:44:15.119Z,100340.12
2019-05-25T23:46:44.316Z,100348.52
2019-05-25T23:49:13.436Z,100344.99
2019-05-25T23:51:42.582Z,100337.95
2019-05-25T23:54:11.724Z,100334.89
2019-05-25T23:56:40.853Z,100327.41
2019-05-25T23:59:10.014Z,100325.67
